sensor_id;sensor_type;location;lat;lon;timestamp;P1;durP1;ratioP1;P2;durP2;ratioP2
17141;SDS011;32805;53.556;9.944;2022-08-19T00:01:40;9.63;;;7.50;;
17141;SDS011;32805;53.556;9.944;2022-08-19T00:04:09;7.30;;;6.63;;
17141;SDS011;32805;53.556;9.944;2022-08-19T00:06:39;9.13;;;8.00;;
17141;SDS011;32805;53.556;9.944;2022-08-19T00:09:11;9.60;;;7.57;;
17141;SDS011;32805;53.556;9.944;2022-08-19T00:11:42;11.25;;;7.75;;
17141;SDS011;32805;53.556;9.944;2022-08-19T00:14:11;9.13;;;7.88;;
17141;SDS011;32805;53.556;9.944;2022-08-19T00:16:41;9.10;;;7.43;;
17141;SDS011;32805;53.556;9.944;2022-08-19T00:19:10;13.43;;;9.25;;
17141;SDS011;32805;53.556;9.944;2022-08-19T00:21:38;13.70;;;10.00;;
17141;SDS011;32805;53.556;9.944;2022-08-19T00:24:08;12.77;;;9.02;;
17141;SDS011;32805;53.556;9.944;2022-08-19T00:26:39;11.23;;;9.30;;
17141;SDS011;32805;53.556;9.944;2022-08-19T00:29:08;11.07;;;9.90;;
17141;SDS011;32805;53.556;9.944;2022-08-19T00:31:38;12.27;;;9.90;;
17141;SDS011;32805;53.556;9.944;2022-08-19T00:34:06;13.27;;;11.18;;
17141;SDS011;32805;53.556;9.944;2022-08-19T00:36:34;16.83;;;13.05;;
17141;SDS011;32805;53.556;9.944;2022-08-19T00:39:03;16.63;;;12.15;;
17141;SDS011;32805;53.556;9.944;2022-08-19T00:41:32;18.50;;;13.02;;
17141;SDS011;32805;53.556;9.944;2022-08-19T00:44:01;20.55;;;14.73;;
17141;SDS011;32805;53.556;9.944;2022-08-19T00:46:33;21.17;;;16.52;;
17141;SDS011;32805;53.556;9.944;2022-08-19T00:49:05;19.70;;;14.38;;
17141;SDS011;32805;53.556;9.944;2022-08-19T00:51:36;23.75;;;17.23;;
17141;SDS011;32805;53.556;9.944;2022-08-19T00:54:04;22.85;;;17.08;;
17141;SDS011;32805;53.556;9.944;2022-08-19T00:56:34;23.65;;;16.65;;
17141;SDS011;32805;53.556;9.944;2022-08-19T00:59:02;23.25;;;16.48;;
17141;SDS011;32805;53.556;9.944;2022-08-19T01:01:35;21.73;;;17.45;;
17141;SDS011;32805;53.556;9.944;2022-08-19T01:04:03;30.48;;;19.58;;
17141;SDS011;32805;53.556;9.944;2022-08-19T01:06:31;28.58;;;18.83;;
17141;SDS011;32805;53.556;9.944;2022-08-19T01:09:01;26.42;;;18.70;;
17141;SDS011;32805;53.556;9.944;2022-08-19T01:11:29;29.08;;;18.45;;
17141;SDS011;32805;53.556;9.944;2022-08-19T01:13:59;28.10;;;19.80;;
17141;SDS011;32805;53.556;9.944;2022-08-19T01:16:27;22.10;;;17.02;;
17141;SDS011;32805;53.556;9.944;2022-08-19T01:18:57;24.48;;;18.20;;
17141;SDS011;32805;53.556;9.944;2022-08-19T01:21:25;20.88;;;16.95;;
17141;SDS011;32805;53.556;9.944;2022-08-19T01:23:58;20.55;;;15.32;;
17141;SDS011;32805;53.556;9.944;2022-08-19T01:26:26;25.75;;;17.13;;
17141;SDS011;32805;53.556;9.944;2022-08-19T01:28:57;21.98;;;16.38;;
17141;SDS011;32805;53.556;9.944;2022-08-19T01:31:27;21.15;;;16.48;;
17141;SDS011;32805;53.556;9.944;2022-08-19T01:33:58;20.95;;;16.17;;
17141;SDS011;32805;53.556;9.944;2022-08-19T01:36:29;22.27;;;16.10;;
17141;SDS011;32805;53.556;9.944;2022-08-19T01:39:00;22.42;;;16.10;;
17141;SDS011;32805;53.556;9.944;2022-08-19T01:41:29;20.58;;;16.38;;
17141;SDS011;32805;53.556;9.944;2022-08-19T01:43:56;23.30;;;15.73;;
17141;SDS011;32805;53.556;9.944;2022-08-19T01:46:43;23.88;;;17.38;;
17141;SDS011;32805;53.556;9.944;2022-08-19T01:49:12;17.77;;;14.77;;
17141;SDS011;32805;53.556;9.944;2022-08-19T01:51:40;22.13;;;15.48;;
17141;SDS011;32805;53.556;9.944;2022-08-19T01:54:10;19.92;;;15.05;;
17141;SDS011;32805;53.556;9.944;2022-08-19T01:56:55;20.95;;;15.90;;
17141;SDS011;32805;53.556;9.944;2022-08-19T01:59:27;23.45;;;15.65;;
17141;SDS011;32805;53.556;9.944;2022-08-19T02:01:55;24.75;;;17.42;;
17141;SDS011;32805;53.556;9.944;2022-08-19T02:04:23;25.45;;;18.17;;
17141;SDS011;32805;53.556;9.944;2022-08-19T02:06:51;24.48;;;17.95;;
17141;SDS011;32805;53.556;9.944;2022-08-19T02:09:20;27.42;;;18.55;;
17141;SDS011;32805;53.556;9.944;2022-08-19T02:11:48;27.05;;;17.63;;
17141;SDS011;32805;53.556;9.944;2022-08-19T02:14:16;27.30;;;18.27;;
17141;SDS011;32805;53.556;9.944;2022-08-19T02:16:43;25.98;;;17.52;;
17141;SDS011;32805;53.556;9.944;2022-08-19T02:19:11;24.85;;;17.25;;
17141;SDS011;32805;53.556;9.944;2022-08-19T02:21:39;24.23;;;17.35;;
17141;SDS011;32805;53.556;9.944;2022-08-19T02:24:07;27.00;;;17.00;;
17141;SDS011;32805;53.556;9.944;2022-08-19T02:26:36;29.67;;;18.35;;
17141;SDS011;32805;53.556;9.944;2022-08-19T02:29:06;31.42;;;18.05;;
17141;SDS011;32805;53.556;9.944;2022-08-19T02:31:34;32.95;;;19.33;;
17141;SDS011;32805;53.556;9.944;2022-08-19T02:34:02;27.55;;;18.58;;
17141;SDS011;32805;53.556;9.944;2022-08-19T02:36:30;30.95;;;19.17;;
17141;SDS011;32805;53.556;9.944;2022-08-19T02:38:58;33.10;;;19.27;;
17141;SDS011;32805;53.556;9.944;2022-08-19T02:41:26;30.27;;;18.77;;
17141;SDS011;32805;53.556;9.944;2022-08-19T02:43:59;34.47;;;18.45;;
17141;SDS011;32805;53.556;9.944;2022-08-19T02:46:48;38.55;;;21.65;;
17141;SDS011;32805;53.556;9.944;2022-08-19T02:49:18;34.58;;;20.10;;
17141;SDS011;32805;53.556;9.944;2022-08-19T02:51:46;34.70;;;20.77;;
17141;SDS011;32805;53.556;9.944;2022-08-19T02:54:14;43.28;;;22.70;;
17141;SDS011;32805;53.556;9.944;2022-08-19T02:56:43;41.65;;;20.77;;
17141;SDS011;32805;53.556;9.944;2022-08-19T02:59:13;34.35;;;21.30;;
17141;SDS011;32805;53.556;9.944;2022-08-19T03:01:41;37.25;;;21.65;;
17141;SDS011;32805;53.556;9.944;2022-08-19T03:04:10;45.08;;;23.63;;
17141;SDS011;32805;53.556;9.944;2022-08-19T03:06:43;45.67;;;23.05;;
17141;SDS011;32805;53.556;9.944;2022-08-19T03:09:12;48.90;;;25.00;;
17141;SDS011;32805;53.556;9.944;2022-08-19T03:11:41;54.22;;;25.38;;
17141;SDS011;32805;53.556;9.944;2022-08-19T03:14:09;52.47;;;24.50;;
17141;SDS011;32805;53.556;9.944;2022-08-19T03:16:41;56.63;;;25.95;;
17141;SDS011;32805;53.556;9.944;2022-08-19T03:19:11;60.05;;;26.52;;
17141;SDS011;32805;53.556;9.944;2022-08-19T03:21:39;64.05;;;27.60;;
17141;SDS011;32805;53.556;9.944;2022-08-19T03:24:07;54.03;;;27.50;;
17141;SDS011;32805;53.556;9.944;2022-08-19T03:26:38;56.50;;;28.55;;
17141;SDS011;32805;53.556;9.944;2022-08-19T03:29:07;52.60;;;26.80;;
17141;SDS011;32805;53.556;9.944;2022-08-19T03:31:39;52.40;;;25.02;;
17141;SDS011;32805;53.556;9.944;2022-08-19T03:34:19;51.38;;;27.67;;
17141;SDS011;32805;53.556;9.944;2022-08-19T03:36:49;49.78;;;26.63;;
17141;SDS011;32805;53.556;9.944;2022-08-19T03:39:17;41.78;;;24.92;;
17141;SDS011;32805;53.556;9.944;2022-08-19T03:41:45;45.67;;;25.05;;
17141;SDS011;32805;53.556;9.944;2022-08-19T03:44:36;45.88;;;25.80;;
17141;SDS011;32805;53.556;9.944;2022-08-19T03:47:06;38.45;;;23.75;;
17141;SDS011;32805;53.556;9.944;2022-08-19T03:49:33;45.10;;;24.55;;
17141;SDS011;32805;53.556;9.944;2022-08-19T03:52:03;46.78;;;25.67;;
17141;SDS011;32805;53.556;9.944;2022-08-19T03:54:34;50.42;;;26.02;;
17141;SDS011;32805;53.556;9.944;2022-08-19T03:57:02;46.22;;;26.60;;
17141;SDS011;32805;53.556;9.944;2022-08-19T03:59:31;54.20;;;26.80;;
17141;SDS011;32805;53.556;9.944;2022-08-19T04:02:00;47.95;;;27.52;;
17141;SDS011;32805;53.556;9.944;2022-08-19T04:04:31;47.65;;;26.60;;
17141;SDS011;32805;53.556;9.944;2022-08-19T04:06:59;51.33;;;26.38;;
17141;SDS011;32805;53.556;9.944;2022-08-19T04:09:26;48.17;;;24.67;;
17141;SDS011;32805;53.556;9.944;2022-08-19T04:11:55;44.97;;;24.75;;
17141;SDS011;32805;53.556;9.944;2022-08-19T04:14:25;45.15;;;25.30;;
17141;SDS011;32805;53.556;9.944;2022-08-19T04:16:56;44.90;;;25.73;;
17141;SDS011;32805;53.556;9.944;2022-08-19T04:19:25;43.28;;;26.13;;
17141;SDS011;32805;53.556;9.944;2022-08-19T04:21:54;43.50;;;24.95;;
17141;SDS011;32805;53.556;9.944;2022-08-19T04:24:23;45.33;;;27.27;;
17141;SDS011;32805;53.556;9.944;2022-08-19T04:26:51;45.05;;;26.80;;
17141;SDS011;32805;53.556;9.944;2022-08-19T04:29:20;44.13;;;27.85;;
17141;SDS011;32805;53.556;9.944;2022-08-19T04:31:51;43.05;;;26.75;;
17141;SDS011;32805;53.556;9.944;2022-08-19T04:34:21;44.53;;;24.92;;
17141;SDS011;32805;53.556;9.944;2022-08-19T04:36:50;38.28;;;25.10;;
17141;SDS011;32805;53.556;9.944;2022-08-19T04:39:22;39.17;;;25.70;;
17141;SDS011;32805;53.556;9.944;2022-08-19T04:42:12;35.40;;;23.67;;
17141;SDS011;32805;53.556;9.944;2022-08-19T04:44:58;36.00;;;23.27;;
17141;SDS011;32805;53.556;9.944;2022-08-19T04:47:26;38.42;;;23.88;;
17141;SDS011;32805;53.556;9.944;2022-08-19T04:50:14;35.78;;;23.73;;
17141;SDS011;32805;53.556;9.944;2022-08-19T04:52:44;38.92;;;24.88;;
17141;SDS011;32805;53.556;9.944;2022-08-19T04:55:13;36.05;;;22.25;;
17141;SDS011;32805;53.556;9.944;2022-08-19T04:57:41;30.63;;;21.85;;
17141;SDS011;32805;53.556;9.944;2022-08-19T05:00:09;36.80;;;22.55;;
17141;SDS011;32805;53.556;9.944;2022-08-19T05:02:37;33.58;;;21.48;;
17141;SDS011;32805;53.556;9.944;2022-08-19T05:05:06;38.97;;;22.55;;
17141;SDS011;32805;53.556;9.944;2022-08-19T05:07:34;41.22;;;23.20;;
17141;SDS011;32805;53.556;9.944;2022-08-19T05:10:03;40.28;;;22.30;;
17141;SDS011;32805;53.556;9.944;2022-08-19T05:12:34;42.33;;;24.63;;
17141;SDS011;32805;53.556;9.944;2022-08-19T05:15:03;39.35;;;22.38;;
17141;SDS011;32805;53.556;9.944;2022-08-19T05:17:32;32.45;;;21.55;;
17141;SDS011;32805;53.556;9.944;2022-08-19T05:20:04;34.72;;;21.23;;
17141;SDS011;32805;53.556;9.944;2022-08-19T05:22:51;31.02;;;19.92;;
17141;SDS011;32805;53.556;9.944;2022-08-19T05:25:20;36.40;;;20.77;;
17141;SDS011;32805;53.556;9.944;2022-08-19T05:27:49;29.55;;;19.58;;
17141;SDS011;32805;53.556;9.944;2022-08-19T05:30:17;34.75;;;19.85;;
17141;SDS011;32805;53.556;9.944;2022-08-19T05:33:06;30.98;;;19.23;;
17141;SDS011;32805;53.556;9.944;2022-08-19T05:35:38;31.38;;;18.52;;
17141;SDS011;32805;53.556;9.944;2022-08-19T05:38:06;29.20;;;18.58;;
17141;SDS011;32805;53.556;9.944;2022-08-19T05:40:35;29.35;;;18.75;;
17141;SDS011;32805;53.556;9.944;2022-08-19T05:43:05;29.38;;;19.10;;
17141;SDS011;32805;53.556;9.944;2022-08-19T05:45:37;29.48;;;17.98;;
17141;SDS011;32805;53.556;9.944;2022-08-19T05:48:06;27.60;;;18.45;;
17141;SDS011;32805;53.556;9.944;2022-08-19T05:50:35;26.67;;;17.55;;
17141;SDS011;32805;53.556;9.944;2022-08-19T05:53:03;28.00;;;16.40;;
17141;SDS011;32805;53.556;9.944;2022-08-19T05:55:31;25.73;;;16.58;;
17141;SDS011;32805;53.556;9.944;2022-08-19T05:57:59;26.05;;;16.80;;
17141;SDS011;32805;53.556;9.944;2022-08-19T06:00:29;24.35;;;16.60;;
17141;SDS011;32805;53.556;9.944;2022-08-19T06:02:57;29.40;;;16.83;;
17141;SDS011;32805;53.556;9.944;2022-08-19T06:05:38;27.75;;;17.38;;
17141;SDS011;32805;53.556;9.944;2022-08-19T06:08:16;23.52;;;15.55;;
17141;SDS011;32805;53.556;9.944;2022-08-19T06:10:44;23.58;;;15.07;;
17141;SDS011;32805;53.556;9.944;2022-08-19T06:13:12;21.90;;;14.05;;
17141;SDS011;32805;53.556;9.944;2022-08-19T06:15:42;23.95;;;14.32;;
17141;SDS011;32805;53.556;9.944;2022-08-19T06:18:12;23.52;;;15.10;;
17141;SDS011;32805;53.556;9.944;2022-08-19T06:20:41;21.33;;;14.40;;
17141;SDS011;32805;53.556;9.944;2022-08-19T06:23:21;28.33;;;16.60;;
17141;SDS011;32805;53.556;9.944;2022-08-19T06:25:49;21.52;;;14.75;;
17141;SDS011;32805;53.556;9.944;2022-08-19T06:28:17;25.40;;;14.85;;
17141;SDS011;32805;53.556;9.944;2022-08-19T06:30:47;25.88;;;15.00;;
17141;SDS011;32805;53.556;9.944;2022-08-19T06:33:14;27.17;;;15.55;;
17141;SDS011;32805;53.556;9.944;2022-08-19T06:35:43;27.02;;;15.52;;
17141;SDS011;32805;53.556;9.944;2022-08-19T06:38:11;22.33;;;14.43;;
17141;SDS011;32805;53.556;9.944;2022-08-19T06:40:39;23.45;;;15.52;;
17141;SDS011;32805;53.556;9.944;2022-08-19T06:43:07;22.60;;;15.10;;
17141;SDS011;32805;53.556;9.944;2022-08-19T06:45:36;24.05;;;15.82;;
17141;SDS011;32805;53.556;9.944;2022-08-19T06:48:06;25.42;;;15.68;;
17141;SDS011;32805;53.556;9.944;2022-08-19T06:50:37;24.25;;;13.90;;
17141;SDS011;32805;53.556;9.944;2022-08-19T06:53:06;20.60;;;13.18;;
17141;SDS011;32805;53.556;9.944;2022-08-19T06:55:35;21.67;;;14.00;;
17141;SDS011;32805;53.556;9.944;2022-08-19T06:58:04;23.92;;;13.73;;
17141;SDS011;32805;53.556;9.944;2022-08-19T07:00:32;19.83;;;12.15;;
17141;SDS011;32805;53.556;9.944;2022-08-19T07:03:00;22.88;;;11.38;;
17141;SDS011;32805;53.556;9.944;2022-08-19T07:05:39;23.77;;;12.00;;
17141;SDS011;32805;53.556;9.944;2022-08-19T07:08:11;16.63;;;11.60;;
17141;SDS011;32805;53.556;9.944;2022-08-19T07:10:42;18.00;;;10.15;;
17141;SDS011;32805;53.556;9.944;2022-08-19T07:13:10;15.82;;;9.95;;
17141;SDS011;32805;53.556;9.944;2022-08-19T07:15:38;15.20;;;10.20;;
17141;SDS011;32805;53.556;9.944;2022-08-19T07:18:06;17.42;;;9.80;;
17141;SDS011;32805;53.556;9.944;2022-08-19T07:20:38;14.88;;;9.32;;
17141;SDS011;32805;53.556;9.944;2022-08-19T07:23:07;17.75;;;10.80;;
17141;SDS011;32805;53.556;9.944;2022-08-19T07:25:41;10.40;;;8.90;;
17141;SDS011;32805;53.556;9.944;2022-08-19T07:28:18;15.05;;;10.55;;
17141;SDS011;32805;53.556;9.944;2022-08-19T07:30:50;17.42;;;9.77;;
17141;SDS011;32805;53.556;9.944;2022-08-19T07:33:20;15.23;;;10.30;;
17141;SDS011;32805;53.556;9.944;2022-08-19T07:35:54;15.68;;;10.63;;
17141;SDS011;32805;53.556;9.944;2022-08-19T07:38:22;11.43;;;9.05;;
17141;SDS011;32805;53.556;9.944;2022-08-19T07:40:50;10.82;;;9.13;;
17141;SDS011;32805;53.556;9.944;2022-08-19T07:43:20;10.70;;;8.20;;
17141;SDS011;32805;53.556;9.944;2022-08-19T07:46:00;9.38;;;7.68;;
17141;SDS011;32805;53.556;9.944;2022-08-19T07:48:28;10.15;;;7.60;;
17141;SDS011;32805;53.556;9.944;2022-08-19T07:51:01;13.73;;;7.47;;
17141;SDS011;32805;53.556;9.944;2022-08-19T07:53:31;14.48;;;7.10;;
17141;SDS011;32805;53.556;9.944;2022-08-19T07:56:05;9.65;;;7.20;;
17141;SDS011;32805;53.556;9.944;2022-08-19T07:58:34;10.18;;;8.27;;
17141;SDS011;32805;53.556;9.944;2022-08-19T08:01:05;12.30;;;7.30;;
17141;SDS011;32805;53.556;9.944;2022-08-19T08:03:35;7.40;;;6.65;;
17141;SDS011;32805;53.556;9.944;2022-08-19T08:06:22;9.82;;;7.43;;
17141;SDS011;32805;53.556;9.944;2022-08-19T08:09:09;9.85;;;7.07;;
17141;SDS011;32805;53.556;9.944;2022-08-19T08:11:52;12.52;;;8.95;;
17141;SDS011;32805;53.556;9.944;2022-08-19T08:14:30;17.05;;;10.27;;
17141;SDS011;32805;53.556;9.944;2022-08-19T08:17:01;14.02;;;8.68;;
17141;SDS011;32805;53.556;9.944;2022-08-19T08:19:36;12.65;;;8.75;;
17141;SDS011;32805;53.556;9.944;2022-08-19T08:22:06;19.15;;;9.48;;
17141;SDS011;32805;53.556;9.944;2022-08-19T08:24:34;15.82;;;11.23;;
17141;SDS011;32805;53.556;9.944;2022-08-19T08:27:02;14.20;;;9.80;;
17141;SDS011;32805;53.556;9.944;2022-08-19T08:29:36;14.63;;;10.45;;
17141;SDS011;32805;53.556;9.944;2022-08-19T08:32:04;15.35;;;10.73;;
17141;SDS011;32805;53.556;9.944;2022-08-19T08:34:40;14.65;;;10.48;;
17141;SDS011;32805;53.556;9.944;2022-08-19T08:37:09;15.88;;;11.48;;
17141;SDS011;32805;53.556;9.944;2022-08-19T08:39:41;15.90;;;10.68;;
17141;SDS011;32805;53.556;9.944;2022-08-19T08:42:10;17.33;;;11.95;;
17141;SDS011;32805;53.556;9.944;2022-08-19T08:44:44;13.35;;;9.85;;
17141;SDS011;32805;53.556;9.944;2022-08-19T08:47:24;15.85;;;10.77;;
17141;SDS011;32805;53.556;9.944;2022-08-19T08:49:55;16.90;;;11.07;;
17141;SDS011;32805;53.556;9.944;2022-08-19T08:52:29;20.20;;;12.80;;
17141;SDS011;32805;53.556;9.944;2022-08-19T08:55:03;16.58;;;12.73;;
17141;SDS011;32805;53.556;9.944;2022-08-19T08:57:36;20.30;;;12.48;;
17141;SDS011;32805;53.556;9.944;2022-08-19T09:00:14;17.52;;;11.63;;
17141;SDS011;32805;53.556;9.944;2022-08-19T09:02:46;19.60;;;12.60;;
17141;SDS011;32805;53.556;9.944;2022-08-19T09:05:17;25.10;;;14.93;;
17141;SDS011;32805;53.556;9.944;2022-08-19T09:07:52;21.00;;;12.27;;
17141;SDS011;32805;53.556;9.944;2022-08-19T09:10:27;21.10;;;13.07;;
17141;SDS011;32805;53.556;9.944;2022-08-19T09:13:01;18.10;;;12.00;;
17141;SDS011;32805;53.556;9.944;2022-08-19T09:15:39;21.55;;;11.38;;
17141;SDS011;32805;53.556;9.944;2022-08-19T09:18:12;14.63;;;10.70;;
17141;SDS011;32805;53.556;9.944;2022-08-19T09:20:45;17.02;;;11.18;;
17141;SDS011;32805;53.556;9.944;2022-08-19T09:23:15;16.95;;;11.10;;
17141;SDS011;32805;53.556;9.944;2022-08-19T09:25:52;20.08;;;10.90;;
17141;SDS011;32805;53.556;9.944;2022-08-19T09:28:20;12.35;;;10.00;;
17141;SDS011;32805;53.556;9.944;2022-08-19T09:30:52;12.02;;;9.75;;
17141;SDS011;32805;53.556;9.944;2022-08-19T09:33:20;17.10;;;10.45;;
17141;SDS011;32805;53.556;9.944;2022-08-19T09:35:48;17.70;;;11.13;;
17141;SDS011;32805;53.556;9.944;2022-08-19T09:38:20;15.65;;;10.15;;
17141;SDS011;32805;53.556;9.944;2022-08-19T09:40:49;19.25;;;11.07;;
17141;SDS011;32805;53.556;9.944;2022-08-19T09:43:16;17.27;;;11.68;;
17141;SDS011;32805;53.556;9.944;2022-08-19T09:45:59;17.83;;;11.93;;
17141;SDS011;32805;53.556;9.944;2022-08-19T09:48:27;16.33;;;13.05;;
17141;SDS011;32805;53.556;9.944;2022-08-19T09:51:01;18.85;;;12.55;;
17141;SDS011;32805;53.556;9.944;2022-08-19T09:53:31;20.17;;;13.40;;
17141;SDS011;32805;53.556;9.944;2022-08-19T09:56:02;23.50;;;13.27;;
17141;SDS011;32805;53.556;9.944;2022-08-19T09:58:34;18.63;;;11.02;;
17141;SDS011;32805;53.556;9.944;2022-08-19T10:01:03;15.82;;;11.40;;
17141;SDS011;32805;53.556;9.944;2022-08-19T10:03:32;16.73;;;10.38;;
17141;SDS011;32805;53.556;9.944;2022-08-19T10:06:02;15.82;;;11.68;;
17141;SDS011;32805;53.556;9.944;2022-08-19T10:08:41;16.63;;;12.40;;
17141;SDS011;32805;53.556;9.944;2022-08-19T10:11:15;20.75;;;12.88;;
17141;SDS011;32805;53.556;9.944;2022-08-19T10:13:54;22.35;;;13.02;;
17141;SDS011;32805;53.556;9.944;2022-08-19T10:16:22;21.08;;;14.40;;
17141;SDS011;32805;53.556;9.944;2022-08-19T10:18:56;20.40;;;14.32;;
17141;SDS011;32805;53.556;9.944;2022-08-19T10:21:26;20.13;;;14.35;;
17141;SDS011;32805;53.556;9.944;2022-08-19T10:23:59;28.70;;;14.63;;
17141;SDS011;32805;53.556;9.944;2022-08-19T10:26:30;21.25;;;14.68;;
17141;SDS011;32805;53.556;9.944;2022-08-19T10:29:00;18.38;;;14.10;;
17141;SDS011;32805;53.556;9.944;2022-08-19T10:31:29;19.08;;;15.70;;
17141;SDS011;32805;53.556;9.944;2022-08-19T10:34:18;16.67;;;14.02;;
17141;SDS011;32805;53.556;9.944;2022-08-19T10:36:54;19.63;;;15.50;;
17141;SDS011;32805;53.556;9.944;2022-08-19T10:39:28;21.35;;;14.05;;
17141;SDS011;32805;53.556;9.944;2022-08-19T10:41:58;17.13;;;13.68;;
17141;SDS011;32805;53.556;9.944;2022-08-19T10:44:26;18.27;;;13.77;;
17141;SDS011;32805;53.556;9.944;2022-08-19T10:46:57;21.70;;;13.95;;
17141;SDS011;32805;53.556;9.944;2022-08-19T10:49:26;18.05;;;14.23;;
17141;SDS011;32805;53.556;9.944;2022-08-19T10:51:54;18.60;;;14.55;;
17141;SDS011;32805;53.556;9.944;2022-08-19T10:54:46;19.50;;;15.13;;
17141;SDS011;32805;53.556;9.944;2022-08-19T10:57:34;23.58;;;15.88;;
17141;SDS011;32805;53.556;9.944;2022-08-19T11:00:22;23.05;;;15.27;;
17141;SDS011;32805;53.556;9.944;2022-08-19T11:02:51;19.17;;;14.38;;
17141;SDS011;32805;53.556;9.944;2022-08-19T11:05:19;19.00;;;15.10;;
17141;SDS011;32805;53.556;9.944;2022-08-19T11:07:50;18.50;;;15.02;;
17141;SDS011;32805;53.556;9.944;2022-08-19T11:10:20;21.40;;;14.23;;
17141;SDS011;32805;53.556;9.944;2022-08-19T11:12:50;19.50;;;14.68;;
17141;SDS011;32805;53.556;9.944;2022-08-19T11:15:20;19.83;;;14.23;;
17141;SDS011;32805;53.556;9.944;2022-08-19T11:17:48;23.48;;;15.98;;
17141;SDS011;32805;53.556;9.944;2022-08-19T11:20:18;13.88;;;11.60;;
17141;SDS011;32805;53.556;9.944;2022-08-19T11:22:46;22.20;;;14.52;;
17141;SDS011;32805;53.556;9.944;2022-08-19T11:25:14;18.48;;;13.98;;
17141;SDS011;32805;53.556;9.944;2022-08-19T11:27:43;19.83;;;14.60;;
17141;SDS011;32805;53.556;9.944;2022-08-19T11:30:12;20.83;;;13.55;;
17141;SDS011;32805;53.556;9.944;2022-08-19T11:32:41;20.60;;;14.10;;
17141;SDS011;32805;53.556;9.944;2022-08-19T11:35:14;20.40;;;13.77;;
17141;SDS011;32805;53.556;9.944;2022-08-19T11:37:43;23.13;;;13.93;;
17141;SDS011;32805;53.556;9.944;2022-08-19T11:40:11;18.33;;;13.35;;
17141;SDS011;32805;53.556;9.944;2022-08-19T11:42:39;16.65;;;11.55;;
17141;SDS011;32805;53.556;9.944;2022-08-19T11:45:24;17.13;;;11.32;;
17141;SDS011;32805;53.556;9.944;2022-08-19T11:47:52;17.23;;;12.98;;
17141;SDS011;32805;53.556;9.944;2022-08-19T11:50:21;16.48;;;11.60;;
17141;SDS011;32805;53.556;9.944;2022-08-19T11:52:50;14.57;;;11.85;;
17141;SDS011;32805;53.556;9.944;2022-08-19T11:55:21;15.93;;;12.20;;
17141;SDS011;32805;53.556;9.944;2022-08-19T11:57:50;13.93;;;11.48;;
17141;SDS011;32805;53.556;9.944;2022-08-19T12:00:18;16.17;;;11.55;;
17141;SDS011;32805;53.556;9.944;2022-08-19T12:02:48;14.60;;;11.05;;
17141;SDS011;32805;53.556;9.944;2022-08-19T12:05:16;14.63;;;13.07;;
17141;SDS011;32805;53.556;9.944;2022-08-19T12:07:44;16.50;;;13.50;;
17141;SDS011;32805;53.556;9.944;2022-08-19T12:10:12;14.02;;;12.18;;
17141;SDS011;32805;53.556;9.944;2022-08-19T12:12:44;15.35;;;12.70;;
17141;SDS011;32805;53.556;9.944;2022-08-19T12:15:24;14.05;;;12.35;;
17141;SDS011;32805;53.556;9.944;2022-08-19T12:18:04;14.93;;;12.25;;
17141;SDS011;32805;53.556;9.944;2022-08-19T12:20:33;16.23;;;11.75;;
17141;SDS011;32805;53.556;9.944;2022-08-19T12:23:02;14.02;;;12.52;;
17141;SDS011;32805;53.556;9.944;2022-08-19T12:25:31;12.77;;;11.43;;
17141;SDS011;32805;53.556;9.944;2022-08-19T12:28:00;12.75;;;11.05;;
17141;SDS011;32805;53.556;9.944;2022-08-19T12:30:29;11.98;;;10.30;;
17141;SDS011;32805;53.556;9.944;2022-08-19T12:32:57;12.75;;;11.45;;
17141;SDS011;32805;53.556;9.944;2022-08-19T12:35:26;13.45;;;11.98;;
17141;SDS011;32805;53.556;9.944;2022-08-19T12:37:56;12.25;;;10.77;;
17141;SDS011;32805;53.556;9.944;2022-08-19T12:40:26;13.43;;;11.68;;
17141;SDS011;32805;53.556;9.944;2022-08-19T12:42:54;13.20;;;11.00;;
17141;SDS011;32805;53.556;9.944;2022-08-19T12:45:22;13.68;;;12.18;;
17141;SDS011;32805;53.556;9.944;2022-08-19T12:47:51;12.50;;;11.25;;
17141;SDS011;32805;53.556;9.944;2022-08-19T12:50:20;12.45;;;11.18;;
17141;SDS011;32805;53.556;9.944;2022-08-19T12:52:50;14.63;;;12.32;;
17141;SDS011;32805;53.556;9.944;2022-08-19T12:55:18;14.80;;;12.35;;
17141;SDS011;32805;53.556;9.944;2022-08-19T12:57:46;15.15;;;11.82;;
17141;SDS011;32805;53.556;9.944;2022-08-19T13:00:15;13.20;;;11.38;;
17141;SDS011;32805;53.556;9.944;2022-08-19T13:02:47;13.35;;;11.52;;
17141;SDS011;32805;53.556;9.944;2022-08-19T13:05:18;12.32;;;10.95;;
17141;SDS011;32805;53.556;9.944;2022-08-19T13:07:50;18.73;;;13.63;;
17141;SDS011;32805;53.556;9.944;2022-08-19T13:10:21;15.10;;;11.82;;
17141;SDS011;32805;53.556;9.944;2022-08-19T13:12:54;13.30;;;11.35;;
17141;SDS011;32805;53.556;9.944;2022-08-19T13:15:23;13.20;;;11.80;;
17141;SDS011;32805;53.556;9.944;2022-08-19T13:17:51;13.25;;;11.75;;
17141;SDS011;32805;53.556;9.944;2022-08-19T13:20:22;13.40;;;12.00;;
17141;SDS011;32805;53.556;9.944;2022-08-19T13:22:53;14.00;;;12.50;;
17141;SDS011;32805;53.556;9.944;2022-08-19T13:25:21;13.98;;;12.48;;
17141;SDS011;32805;53.556;9.944;2022-08-19T13:27:49;13.73;;;12.35;;
17141;SDS011;32805;53.556;9.944;2022-08-19T13:30:18;15.68;;;12.43;;
17141;SDS011;32805;53.556;9.944;2022-08-19T13:33:04;13.88;;;12.48;;
17141;SDS011;32805;53.556;9.944;2022-08-19T13:35:42;14.02;;;12.55;;
17141;SDS011;32805;53.556;9.944;2022-08-19T13:38:13;15.40;;;12.68;;
17141;SDS011;32805;53.556;9.944;2022-08-19T13:40:42;14.73;;;13.00;;
17141;SDS011;32805;53.556;9.944;2022-08-19T13:43:10;14.90;;;12.57;;
17141;SDS011;32805;53.556;9.944;2022-08-19T13:45:49;14.73;;;12.57;;
17141;SDS011;32805;53.556;9.944;2022-08-19T13:48:22;13.35;;;12.05;;
17141;SDS011;32805;53.556;9.944;2022-08-19T13:50:52;15.30;;;11.80;;
17141;SDS011;32805;53.556;9.944;2022-08-19T13:53:22;12.65;;;11.23;;
17141;SDS011;32805;53.556;9.944;2022-08-19T13:55:50;13.45;;;11.80;;
17141;SDS011;32805;53.556;9.944;2022-08-19T13:58:20;13.90;;;12.23;;
17141;SDS011;32805;53.556;9.944;2022-08-19T14:00:48;13.57;;;12.18;;
17141;SDS011;32805;53.556;9.944;2022-08-19T14:03:16;13.98;;;12.38;;
17141;SDS011;32805;53.556;9.944;2022-08-19T14:05:43;15.75;;;13.43;;
17141;SDS011;32805;53.556;9.944;2022-08-19T14:08:12;14.50;;;12.27;;
17141;SDS011;32805;53.556;9.944;2022-08-19T14:10:42;16.05;;;14.15;;
17141;SDS011;32805;53.556;9.944;2022-08-19T14:13:12;15.65;;;13.30;;
17141;SDS011;32805;53.556;9.944;2022-08-19T14:15:42;15.60;;;13.93;;
17141;SDS011;32805;53.556;9.944;2022-08-19T14:18:10;15.82;;;14.23;;
17141;SDS011;32805;53.556;9.944;2022-08-19T14:20:38;14.95;;;13.35;;
17141;SDS011;32805;53.556;9.944;2022-08-19T14:23:05;15.93;;;14.23;;
17141;SDS011;32805;53.556;9.944;2022-08-19T14:25:33;17.73;;;13.68;;
17141;SDS011;32805;53.556;9.944;2022-08-19T14:28:03;15.73;;;13.23;;
17141;SDS011;32805;53.556;9.944;2022-08-19T14:30:36;14.38;;;12.63;;
17141;SDS011;32805;53.556;9.944;2022-08-19T14:33:04;12.57;;;11.38;;
17141;SDS011;32805;53.556;9.944;2022-08-19T14:35:34;14.82;;;12.15;;
17141;SDS011;32805;53.556;9.944;2022-08-19T14:38:04;13.80;;;12.40;;
17141;SDS011;32805;53.556;9.944;2022-08-19T14:40:33;13.65;;;11.55;;
17141;SDS011;32805;53.556;9.944;2022-08-19T14:43:02;13.77;;;11.73;;
17141;SDS011;32805;53.556;9.944;2022-08-19T14:45:32;12.77;;;11.25;;